SHT5V EGAC-EGLL
Flight info
| Callsign | SHT5V |
|---|---|
| Flight time | 0h 51m |
| Altitude | 33000 |
| Route | DCT DUFFY L10 RINGA Q39 BABGU DCT ETIGA DCT INKOB Q39 NOMSU UQ4 WAL UY53 NUGRA NUGRA2H |
| Aircraft | A320/M-SDE3FGHIJ1RWXY/S |
Departure
| Time | 2026-05-04 09:17 |
|---|---|
| Airport | George Best Belfast City Airport (EGAC) |
Arrival
| Time | 2026-05-04 10:08 |
|---|---|
| Airport | London Heathrow Airport (EGLL) |
| Time | Latitude | Longitude | Altitude | Speed | Heading |
|---|---|---|---|---|---|
| 2026-05-04 08:54 | 54.61503 | -5.87148 | 21 ft | 0 kts | 156° |
| 2026-05-04 09:09 | 54.61524 | -5.87163 | 24 ft | 4 kts | 158° |
| 2026-05-04 09:09 | 54.61547 | -5.87178 | 25 ft | 3 kts | 169° |
| 2026-05-04 09:10 | 54.61560 | -5.87180 | 24 ft | 2 kts | 193° |
| 2026-05-04 09:10 | 54.61571 | -5.87174 | 23 ft | 2 kts | 208° |
| 2026-05-04 09:10 | 54.61580 | -5.87165 | 24 ft | 2 kts | 214° |
| 2026-05-04 09:10 | 54.61589 | -5.87155 | 23 ft | 2 kts | 215° |
| 2026-05-04 09:11 | 54.61593 | -5.87151 | 23 ft | 0 kts | 215° |
| 2026-05-04 09:14 | 54.61224 | -5.87636 | 17 ft | 22 kts | 214° |
| 2026-05-04 09:14 | 54.61118 | -5.87764 | 18 ft | 13 kts | 214° |
| 2026-05-04 09:14 | 54.61083 | -5.87868 | 18 ft | 11 kts | 271° |
| 2026-05-04 09:14 | 54.61115 | -5.87976 | 18 ft | 5 kts | 306° |
| 2026-05-04 09:15 | 54.61143 | -5.88026 | 18 ft | 6 kts | 341° |
| 2026-05-04 09:15 | 54.61181 | -5.88003 | 19 ft | 0 kts | 34° |
| 2026-05-04 09:15 | 54.61411 | -5.87730 | 13 ft | 85 kts | 34° |
| 2026-05-04 09:17 | 54.60438 | -5.79003 | 3260 ft | 266 kts | 202° |
| 2026-05-04 09:18 | 54.58744 | -5.80257 | 4277 ft | 264 kts | 208° |
| 2026-05-04 09:18 | 54.57094 | -5.81654 | 5271 ft | 265 kts | 209° |
| 2026-05-04 09:18 | 54.55424 | -5.83045 | 6195 ft | 268 kts | 207° |
| 2026-05-04 09:18 | 54.53623 | -5.83972 | 7012 ft | 276 kts | 187° |
| 2026-05-04 09:19 | 54.51689 | -5.83636 | 7800 ft | 285 kts | 162° |
| 2026-05-04 09:19 | 54.49958 | -5.81925 | 8599 ft | 292 kts | 137° |
| 2026-05-04 09:19 | 54.48689 | -5.79186 | 9404 ft | 295 kts | 122° |
| 2026-05-04 09:19 | 54.47553 | -5.76260 | 10187 ft | 299 kts | 123° |
| 2026-05-04 09:20 | 54.46350 | -5.73214 | 10542 ft | 319 kts | 123° |
| 2026-05-04 09:20 | 54.45045 | -5.69945 | 10746 ft | 342 kts | 124° |
| 2026-05-04 09:20 | 54.43669 | -5.66529 | 11220 ft | 352 kts | 124° |
| 2026-05-04 09:20 | 54.42260 | -5.63053 | 11900 ft | 356 kts | 124° |
| 2026-05-04 09:21 | 54.40839 | -5.59557 | 12592 ft | 358 kts | 124° |
| 2026-05-04 09:21 | 54.39405 | -5.56020 | 13280 ft | 361 kts | 124° |
| 2026-05-04 09:21 | 54.37962 | -5.52454 | 13984 ft | 364 kts | 124° |
| 2026-05-04 09:21 | 54.36511 | -5.48867 | 14576 ft | 368 kts | 124° |
| 2026-05-04 09:22 | 54.35064 | -5.45297 | 15158 ft | 371 kts | 124° |
| 2026-05-04 09:22 | 54.33584 | -5.41647 | 15732 ft | 374 kts | 124° |
| 2026-05-04 09:22 | 54.32094 | -5.37980 | 16309 ft | 377 kts | 124° |
| 2026-05-04 09:22 | 54.30588 | -5.34280 | 16877 ft | 380 kts | 124° |
| 2026-05-04 09:23 | 54.29064 | -5.30547 | 17458 ft | 383 kts | 123° |
| 2026-05-04 09:23 | 54.27521 | -5.26804 | 18044 ft | 386 kts | 124° |
| 2026-05-04 09:23 | 54.25884 | -5.23124 | 18601 ft | 390 kts | 127° |
| 2026-05-04 09:23 | 54.24164 | -5.19508 | 19125 ft | 393 kts | 128° |
| 2026-05-04 09:25 | 54.11656 | -4.93979 | 22669 ft | 409 kts | 127° |
| 2026-05-04 09:25 | 54.09840 | -4.90226 | 23142 ft | 412 kts | 127° |
| 2026-05-04 09:26 | 54.08006 | -4.86440 | 23610 ft | 414 kts | 127° |
| 2026-05-04 09:26 | 54.06158 | -4.82642 | 24010 ft | 417 kts | 127° |
| 2026-05-04 09:26 | 54.04306 | -4.78840 | 24402 ft | 419 kts | 127° |
| 2026-05-04 09:26 | 54.02502 | -4.75010 | 24787 ft | 420 kts | 125° |
| 2026-05-04 09:27 | 54.00719 | -4.71050 | 25178 ft | 422 kts | 124° |
| 2026-05-04 09:27 | 53.98964 | -4.67044 | 25563 ft | 423 kts | 123° |
| 2026-05-04 09:27 | 53.97209 | -4.63003 | 25942 ft | 425 kts | 123° |
| 2026-05-04 09:27 | 53.95440 | -4.58954 | 26325 ft | 427 kts | 123° |
| 2026-05-04 09:28 | 53.93651 | -4.54903 | 26695 ft | 429 kts | 123° |
| 2026-05-04 09:28 | 53.91845 | -4.50855 | 27081 ft | 431 kts | 123° |
| 2026-05-04 09:28 | 53.90020 | -4.46802 | 27460 ft | 433 kts | 123° |
| 2026-05-04 09:28 | 53.88181 | -4.42733 | 27853 ft | 435 kts | 123° |
| 2026-05-04 09:29 | 53.86346 | -4.38641 | 28243 ft | 436 kts | 122° |
| 2026-05-04 09:29 | 53.84566 | -4.34461 | 28608 ft | 438 kts | 121° |
| 2026-05-04 09:29 | 53.82856 | -4.30267 | 28976 ft | 439 kts | 120° |
| 2026-05-04 09:29 | 53.81143 | -4.25978 | 29343 ft | 440 kts | 119° |
| 2026-05-04 09:30 | 53.79432 | -4.21682 | 29821 ft | 439 kts | 119° |
| 2026-05-04 09:30 | 53.77717 | -4.17418 | 30324 ft | 438 kts | 120° |
| 2026-05-04 09:30 | 53.75992 | -4.13184 | 30801 ft | 436 kts | 120° |
| 2026-05-04 09:30 | 53.74266 | -4.08993 | 31268 ft | 434 kts | 120° |
| 2026-05-04 09:31 | 53.72538 | -4.04827 | 31751 ft | 431 kts | 120° |
| 2026-05-04 09:31 | 53.70817 | -4.00690 | 32250 ft | 429 kts | 120° |
| 2026-05-04 09:31 | 53.69105 | -3.96575 | 32740 ft | 427 kts | 120° |
| 2026-05-04 09:31 | 53.67400 | -3.92476 | 33033 ft | 426 kts | 120° |
| 2026-05-04 09:32 | 53.63993 | -3.84276 | 33085 ft | 428 kts | 120° |
| 2026-05-04 09:34 | 53.50274 | -3.51576 | 33087 ft | 429 kts | 121° |
| 2026-05-04 09:34 | 53.46912 | -3.43319 | 33089 ft | 425 kts | 114° |
| 2026-05-04 09:35 | 53.44532 | -3.34313 | 33081 ft | 422 kts | 109° |
| 2026-05-04 09:35 | 53.42231 | -3.25247 | 33083 ft | 422 kts | 109° |
| 2026-05-04 09:37 | 53.31357 | -2.95855 | 33084 ft | 430 kts | 123° |
| 2026-05-04 09:37 | 53.29572 | -2.91839 | 33084 ft | 430 kts | 123° |
| 2026-05-04 09:38 | 53.25984 | -2.83792 | 33079 ft | 431 kts | 123° |
| 2026-05-04 09:38 | 53.22392 | -2.75775 | 33079 ft | 431 kts | 123° |
| 2026-05-04 09:39 | 53.18805 | -2.67835 | 33075 ft | 431 kts | 123° |
| 2026-05-04 09:39 | 53.15177 | -2.59839 | 33075 ft | 432 kts | 124° |
| 2026-05-04 09:40 | 53.11614 | -2.51789 | 33069 ft | 431 kts | 122° |
| 2026-05-04 09:40 | 53.08253 | -2.43517 | 33067 ft | 431 kts | 121° |
| 2026-05-04 09:42 | 52.90387 | -2.17215 | 33066 ft | 441 kts | 145° |
| 2026-05-04 09:43 | 52.85199 | -2.11767 | 33069 ft | 441 kts | 146° |
| 2026-05-04 09:43 | 52.80003 | -2.06353 | 32555 ft | 442 kts | 146° |
| 2026-05-04 09:44 | 52.77361 | -2.03611 | 31502 ft | 451 kts | 146° |
| 2026-05-04 09:44 | 52.74737 | -2.00898 | 31216 ft | 441 kts | 146° |
| 2026-05-04 09:44 | 52.72139 | -1.98214 | 30636 ft | 438 kts | 146° |
| 2026-05-04 09:46 | 52.54662 | -1.80179 | 26803 ft | 409 kts | 148° |
| 2026-05-04 09:46 | 52.52260 | -1.77713 | 26282 ft | 405 kts | 149° |
| 2026-05-04 09:46 | 52.49874 | -1.75269 | 25769 ft | 402 kts | 149° |
| 2026-05-04 09:47 | 52.47512 | -1.72856 | 25287 ft | 398 kts | 149° |
| 2026-05-04 09:47 | 52.45169 | -1.70468 | 24789 ft | 395 kts | 149° |
| 2026-05-04 09:49 | 52.29255 | -1.54289 | 21604 ft | 371 kts | 150° |
| 2026-05-04 09:49 | 52.27097 | -1.52106 | 21167 ft | 367 kts | 150° |
| 2026-05-04 09:49 | 52.24930 | -1.49923 | 20727 ft | 364 kts | 150° |
| 2026-05-04 09:51 | 52.13044 | -1.34609 | 18388 ft | 363 kts | 141° |
| 2026-05-04 09:51 | 52.11155 | -1.31981 | 17991 ft | 361 kts | 141° |
| 2026-05-04 09:51 | 52.09253 | -1.29333 | 17621 ft | 359 kts | 141° |
| 2026-05-04 09:51 | 52.07361 | -1.26697 | 17260 ft | 357 kts | 141° |
| 2026-05-04 09:52 | 52.05480 | -1.24081 | 16891 ft | 355 kts | 141° |
| 2026-05-04 09:52 | 52.03607 | -1.21483 | 16534 ft | 353 kts | 141° |
| 2026-05-04 09:52 | 52.01740 | -1.18899 | 16174 ft | 351 kts | 141° |
| 2026-05-04 09:52 | 51.99883 | -1.16335 | 15816 ft | 349 kts | 141° |
| 2026-05-04 09:53 | 51.98034 | -1.13787 | 15460 ft | 348 kts | 141° |
| 2026-05-04 09:53 | 51.96195 | -1.11254 | 15109 ft | 346 kts | 141° |
| 2026-05-04 09:53 | 51.94357 | -1.08721 | 14490 ft | 350 kts | 141° |
| 2026-05-04 09:53 | 51.92493 | -1.06154 | 14053 ft | 347 kts | 141° |
| 2026-05-04 09:54 | 51.90692 | -1.03673 | 13933 ft | 333 kts | 141° |
| 2026-05-04 09:54 | 51.88956 | -1.01283 | 13805 ft | 322 kts | 141° |
| 2026-05-04 09:54 | 51.87296 | -0.98997 | 13672 ft | 312 kts | 141° |
| 2026-05-04 09:54 | 51.85711 | -0.96689 | 13533 ft | 303 kts | 133° |
| 2026-05-04 09:55 | 51.84581 | -0.93921 | 13390 ft | 287 kts | 117° |
| 2026-05-04 09:55 | 51.83724 | -0.91087 | 13094 ft | 276 kts | 118° |
| 2026-05-04 09:55 | 51.82884 | -0.88336 | 12660 ft | 271 kts | 118° |
| 2026-05-04 09:55 | 51.82049 | -0.85617 | 12184 ft | 269 kts | 118° |
| 2026-05-04 09:56 | 51.81220 | -0.82920 | 11726 ft | 266 kts | 118° |
| 2026-05-04 09:56 | 51.80398 | -0.80249 | 11264 ft | 264 kts | 118° |
| 2026-05-04 09:56 | 51.79583 | -0.77593 | 10797 ft | 263 kts | 118° |
| 2026-05-04 09:56 | 51.78777 | -0.74955 | 10335 ft | 261 kts | 118° |
| 2026-05-04 09:57 | 51.77984 | -0.72367 | 9897 ft | 259 kts | 118° |
| 2026-05-04 09:57 | 51.77185 | -0.69769 | 9401 ft | 257 kts | 118° |
| 2026-05-04 09:57 | 51.76391 | -0.67188 | 8921 ft | 255 kts | 118° |
| 2026-05-04 09:57 | 51.75602 | -0.64632 | 8441 ft | 254 kts | 118° |
| 2026-05-04 09:58 | 51.74815 | -0.62091 | 8021 ft | 254 kts | 118° |
| 2026-05-04 09:58 | 51.74032 | -0.59564 | 7769 ft | 252 kts | 118° |
| 2026-05-04 09:58 | 51.73245 | -0.57025 | 7529 ft | 250 kts | 117° |
| 2026-05-04 10:00 | 51.66448 | -0.41320 | 7083 ft | 244 kts | 127° |
| 2026-05-04 10:00 | 51.65447 | -0.39110 | 7085 ft | 244 kts | 127° |
| 2026-05-04 10:02 | 51.58724 | -0.24352 | 6208 ft | 246 kts | 127° |
| 2026-05-04 10:04 | 51.50729 | -0.13508 | 3703 ft | 214 kts | 217° |
| 2026-05-04 10:04 | 51.49553 | -0.14911 | 3403 ft | 207 kts | 211° |
| 2026-05-04 10:04 | 51.48448 | -0.16320 | 3301 ft | 203 kts | 232° |
| 2026-05-04 10:04 | 51.47857 | -0.18294 | 3177 ft | 193 kts | 259° |
| 2026-05-04 10:05 | 51.47796 | -0.20400 | 2942 ft | 187 kts | 271° |
| 2026-05-04 10:05 | 51.47800 | -0.22464 | 2691 ft | 183 kts | 271° |
| 2026-05-04 10:05 | 51.47800 | -0.24481 | 2452 ft | 179 kts | 271° |
| 2026-05-04 10:05 | 51.47799 | -0.26449 | 2211 ft | 173 kts | 271° |
| 2026-05-04 10:06 | 51.47796 | -0.28344 | 2008 ft | 170 kts | 271° |
| 2026-05-04 10:06 | 51.47794 | -0.30256 | 1776 ft | 169 kts | 271° |
| 2026-05-04 10:06 | 51.47791 | -0.32124 | 1551 ft | 169 kts | 271° |
| 2026-05-04 10:08 | 51.47772 | -0.42599 | 239 ft | 142 kts | 272° |
| 2026-05-04 10:08 | 51.47765 | -0.44182 | 101 ft | 137 kts | 272° |
| 2026-05-04 10:08 | 51.47762 | -0.45541 | 86 ft | 103 kts | 269° |
| 2026-05-04 10:08 | 51.47760 | -0.46370 | 88 ft | 49 kts | 269° |
| 2026-05-04 10:09 | 51.47705 | -0.46726 | 91 ft | 27 kts | 236° |
| 2026-05-04 10:09 | 51.47637 | -0.46867 | 90 ft | 14 kts | 200° |
| 2026-05-04 10:09 | 51.47582 | -0.46991 | 90 ft | 16 kts | 271° |
| 2026-05-04 10:09 | 51.47582 | -0.47180 | 90 ft | 18 kts | 269° |
| 2026-05-04 10:10 | 51.47582 | -0.47395 | 88 ft | 20 kts | 270° |
| 2026-05-04 10:10 | 51.47580 | -0.47635 | 89 ft | 22 kts | 270° |
| 2026-05-04 10:10 | 51.47579 | -0.47896 | 90 ft | 24 kts | 269° |
| 2026-05-04 10:10 | 51.47578 | -0.48167 | 89 ft | 23 kts | 269° |
| 2026-05-04 10:11 | 51.47579 | -0.48384 | 88 ft | 20 kts | 270° |
| 2026-05-04 10:11 | 51.47527 | -0.48479 | 89 ft | 13 kts | 180° |
| 2026-05-04 10:11 | 51.47439 | -0.48478 | 87 ft | 12 kts | 179° |
| 2026-05-04 10:11 | 51.47402 | -0.48498 | 90 ft | 2 kts | 238° |
| 2026-05-04 10:12 | 51.47399 | -0.48529 | 88 ft | 2 kts | 268° |
| 2026-05-04 10:12 | 51.47399 | -0.48550 | 87 ft | 2 kts | 269° |
| 2026-05-04 10:12 | 51.47399 | -0.48577 | 88 ft | 3 kts | 270° |
| 2026-05-04 10:12 | 51.47399 | -0.48589 | 87 ft | 0 kts | 270° |